Time;durP1;ratioP1;P1;durP2;ratioP2;P2;SDS_P1;SDS_P2;PMS_P1;PMS_P2;Temp;Humidity;BMP_temperature;BMP_pressure;BME280_temperature;BME280_humidity;BME280_pressure;Samples;Min_cycle;Max_cycle;Signal;HPM_P1;HPM_P2
2023/12/23 00:00:30;;;;;;;5.63;1.50;;;;;;;9.92;100.00;97438.78;4216413;28;20207;-88
2023/12/23 00:02:33;;;;;;;6.50;1.70;;;;;;;9.86;100.00;97454.88;4202529;28;20283;-88
2023/12/23 00:04:36;;;;;;;7.43;2.30;;;;;;;9.82;100.00;97455.22;4219937;28;20204;-89
2023/12/23 00:06:40;;;;;;;6.70;2.78;;;;;;;9.84;100.00;97468.94;4186550;28;20213;-88
2023/12/23 00:08:43;;;;;;;7.78;2.50;;;;;;;9.83;100.00;97469.88;4215153;28;20748;-89
2023/12/23 00:10:47;;;;;;;8.43;1.67;;;;;;;9.81;100.00;97482.19;4197998;28;20236;-88
2023/12/23 00:12:50;;;;;;;4.07;1.70;;;;;;;9.78;100.00;97465.97;4186634;28;20233;-88
2023/12/23 00:14:52;;;;;;;3.30;1.63;;;;;;;9.77;100.00;97487.75;4190162;28;20201;-88
2023/12/23 00:16:55;;;;;;;7.57;2.28;;;;;;;9.83;100.00;97489.88;4206099;28;20200;-89
2023/12/23 00:18:58;;;;;;;6.33;2.27;;;;;;;9.82;100.00;97491.66;4203154;28;20210;-88
2023/12/23 00:21:02;;;;;;;6.63;1.80;;;;;;;9.72;100.00;97482.06;4201958;28;20623;-89
2023/12/23 00:23:06;;;;;;;5.55;1.80;;;;;;;9.74;100.00;97516.59;4206361;28;20571;-89
2023/12/23 00:25:10;;;;;;;6.67;1.77;;;;;;;9.73;100.00;97523.59;4200586;28;20203;-88
2023/12/23 00:27:13;;;;;;;5.40;2.67;;;;;;;9.77;100.00;97526.78;4206662;28;20662;-88
2023/12/23 00:29:15;;;;;;;6.60;1.70;;;;;;;9.76;100.00;97527.72;4190729;28;20259;-88
2023/12/23 00:31:18;;;;;;;6.15;2.15;;;;;;;9.75;100.00;97519.09;4202842;28;20223;-88
2023/12/23 00:33:21;;;;;;;6.25;1.55;;;;;;;9.74;100.00;97516.59;4206129;28;20231;-89
2023/12/23 00:35:26;;;;;;;6.57;1.48;;;;;;;9.74;100.00;97529.63;4189932;28;20805;-88
2023/12/23 00:37:29;;;;;;;4.53;1.33;;;;;;;9.73;100.00;97525.38;4189789;28;20785;-88
2023/12/23 00:39:33;;;;;;;3.83;1.50;;;;;;;9.69;100.00;97509.13;4209020;28;20204;-88
2023/12/23 00:41:37;;;;;;;4.85;1.40;;;;;;;9.69;100.00;97508.31;4201647;28;20624;-88
2023/12/23 00:43:40;;;;;;;4.97;1.40;;;;;;;9.63;100.00;97533.03;4186160;28;20229;-89
2023/12/23 00:45:43;;;;;;;3.67;1.27;;;;;;;9.67;100.00;97521.44;4202070;28;20642;-89
2023/12/23 00:47:46;;;;;;;4.23;1.30;;;;;;;9.68;100.00;97530.06;4201403;28;20638;-88
2023/12/23 00:49:50;;;;;;;5.33;1.33;;;;;;;9.63;100.00;97535.63;4202046;28;21259;-88
2023/12/23 00:51:54;;;;;;;4.65;1.65;;;;;;;9.63;100.00;97538.22;4204292;28;21294;-88
2023/12/23 00:53:57;;;;;;;8.27;1.37;;;;;;;9.65;100.00;97538.97;4199124;28;20655;-89
2023/12/23 00:56:02;;;;;;;4.93;1.75;;;;;;;9.65;100.00;97543.31;4203663;28;20677;-89
2023/12/23 00:58:06;;;;;;;3.22;1.58;;;;;;;9.68;100.00;97556.13;4208515;28;20296;-89
2023/12/23 01:00:08;;;;;;;2.60;1.47;;;;;;;9.69;100.00;97555.19;4203014;28;20212;-89
2023/12/23 01:02:14;;;;;;;6.80;1.58;;;;;;;9.67;100.00;97564.88;4201706;28;20646;-89
2023/12/23 01:04:17;;;;;;;10.43;1.88;;;;;;;9.65;100.00;97558.94;4187408;28;20212;-89
2023/12/23 01:06:20;;;;;;;3.73;1.70;;;;;;;9.67;100.00;97570.09;4203911;28;20209;-89
2023/12/23 01:08:25;;;;;;;3.30;1.90;;;;;;;9.67;100.00;97557.91;4202732;28;20634;-89
2023/12/23 01:10:28;;;;;;;6.80;1.80;;;;;;;9.66;100.00;97565.81;4192832;28;20648;-89
2023/12/23 01:12:33;;;;;;;7.45;2.70;;;;;;;9.63;100.00;97560.84;4202969;28;20212;-88
2023/12/23 01:14:36;;;;;;;3.63;1.33;;;;;;;9.64;100.00;97573.75;4190956;28;20205;-89
2023/12/23 01:16:39;;;;;;;3.90;1.70;;;;;;;9.63;100.00;97573.84;4202361;28;20630;-89
2023/12/23 01:18:43;;;;;;;3.90;1.70;;;;;;;9.60;100.00;97576.69;4199871;28;20606;-89
2023/12/23 01:20:46;;;;;;;3.95;1.42;;;;;;;9.57;100.00;97588.13;4192155;28;20283;-89
2023/12/23 01:22:49;;;;;;;6.00;1.63;;;;;;;9.49;100.00;97579.22;4188464;28;20846;-89
2023/12/23 01:24:52;;;;;;;4.70;1.80;;;;;;;9.50;100.00;97583.47;4188236;28;20209;-89
2023/12/23 01:26:57;;;;;;;2.92;1.50;;;;;;;9.48;100.00;97582.75;4221921;27;20633;-89
2023/12/23 01:29:01;;;;;;;6.03;1.45;;;;;;;9.50;100.00;97580.88;4204149;28;20206;-89
2023/12/23 01:31:05;;;;;;;7.90;1.80;;;;;;;9.51;100.00;97582.53;4212920;28;20203;-89
2023/12/23 01:33:08;;;;;;;4.75;1.70;;;;;;;9.49;100.00;97574.03;4199821;28;20274;-88
2023/12/23 01:35:13;;;;;;;3.45;1.50;;;;;;;9.52;100.00;97576.41;4190855;28;20208;-88
2023/12/23 01:37:16;;;;;;;8.70;1.90;;;;;;;9.43;100.00;97590.09;4207393;28;20278;-88
2023/12/23 01:39:19;;;;;;;4.00;1.70;;;;;;;9.44;100.00;97597.78;4189527;28;20246;-88
2023/12/23 01:41:22;;;;;;;7.18;1.83;;;;;;;9.43;100.00;97605.69;4200980;28;20304;-88
2023/12/23 01:43:28;;;;;;;5.13;1.80;;;;;;;9.39;100.00;97593.84;4201811;28;20258;-88
2023/12/23 01:45:33;;;;;;;6.05;1.60;;;;;;;9.40;100.00;97591.13;4190524;28;20218;-88
2023/12/23 01:47:41;;;;;;;6.00;2.05;;;;;;;9.43;100.00;97603.09;4202240;28;20203;-88
2023/12/23 01:49:44;;;;;;;3.70;1.70;;;;;;;9.42;100.00;97604.03;4194287;28;20226;-88
2023/12/23 01:51:48;;;;;;;4.22;1.80;;;;;;;9.45;100.00;97609.84;4205833;28;20204;-88
2023/12/23 01:53:51;;;;;;;5.00;1.60;;;;;;;9.44;100.00;97610.78;4188528;28;20229;-88
2023/12/23 01:55:55;;;;;;;4.63;2.03;;;;;;;9.44;100.00;97618.59;4188442;28;20208;-88
2023/12/23 01:58:00;;;;;;;3.45;1.00;;;;;;;9.42;100.00;97604.03;4191900;28;20190;-89
2023/12/23 02:00:04;;;;;;;4.55;1.88;;;;;;;9.43;100.00;97597.91;4201753;28;20208;-89
2023/12/23 02:02:15;;;;;;;4.65;1.63;;;;;;;9.43;100.00;97608.31;4199414;28;20205;-88
2023/12/23 02:04:18;;;;;;;5.93;1.77;;;;;;;9.41;100.00;97615.38;4199097;28;20204;-88
2023/12/23 02:06:21;;;;;;;4.68;1.80;;;;;;;9.41;100.00;97602.34;4190599;28;20229;-88
2023/12/23 02:08:24;;;;;;;4.20;1.67;;;;;;;9.42;100.00;97601.44;4208445;28;20209;-88
2023/12/23 02:10:28;;;;;;;6.30;2.25;;;;;;;9.42;100.00;97604.84;4190380;28;20204;-88
2023/12/23 02:12:35;;;;;;;7.90;2.00;;;;;;;9.43;100.00;97610.91;4204279;28;20298;-88
2023/12/23 02:14:43;;;;;;;4.37;2.33;;;;;;;9.43;100.00;97596.09;4189793;28;20274;-88
2023/12/23 02:16:47;;;;;;;8.27;2.75;;;;;;;9.43;100.00;97614.31;4197393;28;20730;-88
2023/12/23 02:18:52;;;;;;;9.05;2.95;;;;;;;9.42;100.00;97610.06;4204575;28;20204;-88
2023/12/23 02:20:56;;;;;;;11.32;4.88;;;;;;;9.44;100.00;97607.34;4205504;28;20237;-88
2023/12/23 02:23:00;;;;;;;7.10;2.30;;;;;;;9.45;100.00;97609.00;4188654;28;20221;-88
2023/12/23 02:25:04;;;;;;;7.57;2.65;;;;;;;9.48;100.00;97608.78;4187262;28;20207;-88
2023/12/23 02:27:09;;;;;;;3.80;1.80;;;;;;;9.48;100.00;97614.81;4201061;28;20224;-88
2023/12/23 02:29:13;;;;;;;5.75;1.83;;;;;;;9.52;100.00;97620.66;4202358;28;20238;-89
2023/12/23 02:31:16;;;;;;;5.57;1.90;;;;;;;9.54;100.00;97619.59;4199613;28;20207;-88
2023/12/23 02:33:18;;;;;;;3.55;1.58;;;;;;;9.56;100.00;97622.09;4189642;28;20216;-89
2023/12/23 02:35:24;;;;;;;7.85;1.73;;;;;;;9.57;100.00;97626.34;4205179;28;20255;-88
2023/12/23 02:37:27;;;;;;;5.20;1.70;;;;;;;9.60;100.00;97631.34;4197860;28;20228;-86
2023/12/23 02:39:31;;;;;;;5.50;1.70;;;;;;;9.59;100.00;97619.25;4219990;28;20238;-86
2023/12/23 02:41:34;;;;;;;5.60;2.50;;;;;;;9.55;100.00;97612.63;4186042;28;20232;-86
2023/12/23 02:43:37;;;;;;;6.18;1.80;;;;;;;9.59;100.00;97616.66;4201085;28;20211;-86
2023/12/23 02:45:43;;;;;;;4.93;1.73;;;;;;;9.56;100.00;97616.88;4181955;28;20473;-86
2023/12/23 02:47:45;;;;;;;4.75;1.80;;;;;;;9.59;100.00;97630.53;4204699;28;20239;-86
2023/12/23 02:49:49;;;;;;;6.85;1.52;;;;;;;9.60;100.00;97623.53;4199525;28;20564;-86
2023/12/23 02:51:52;;;;;;;10.43;1.83;;;;;;;9.64;100.00;97636.22;4208899;28;20204;-86
2023/12/23 02:53:56;;;;;;;9.48;1.70;;;;;;;9.63;100.00;97644.13;4189183;28;20229;-86
2023/12/23 02:55:59;;;;;;;7.20;1.70;;;;;;;9.62;100.00;97639.88;4187487;28;20208;-86
2023/12/23 02:58:03;;;;;;;7.93;1.92;;;;;;;9.60;100.00;97634.75;4205290;28;20243;-86
2023/12/23 03:00:07;;;;;;;4.47;1.95;;;;;;;9.59;100.00;97634.88;4204261;28;20205;-86
2023/12/23 03:02:11;;;;;;;5.38;1.95;;;;;;;9.59;100.00;97640.94;4197642;28;20201;-86
2023/12/23 03:04:14;;;;;;;4.53;2.05;;;;;;;9.55;100.00;97651.69;4198687;28;20456;-86
2023/12/23 03:06:17;;;;;;;5.65;2.00;;;;;;;9.58;100.00;97654.88;4187606;28;20301;-86
2023/12/23 03:08:21;;;;;;;5.32;2.00;;;;;;;9.60;100.00;97626.13;4202169;28;20985;-86
2023/12/23 03:10:26;;;;;;;4.95;1.67;;;;;;;9.56;100.00;97628.13;4211788;28;20196;-85
2023/12/23 03:12:29;;;;;;;5.78;1.75;;;;;;;9.58;100.00;97635.84;4189757;28;20226;-84
2023/12/23 03:14:31;;;;;;;5.80;1.70;;;;;;;9.58;100.00;97644.47;4187082;28;20225;-84
2023/12/23 03:16:36;;;;;;;6.10;1.70;;;;;;;9.59;99.00;97640.09;4200156;28;20213;-84
2023/12/23 03:18:38;;;;;;;6.40;1.88;;;;;;;9.59;99.33;97635.72;4203655;28;20199;-84
2023/12/23 03:20:42;;;;;;;6.93;2.00;;;;;;;9.57;99.04;97645.41;4216635;27;20324;-85
2023/12/23 03:22:45;;;;;;;4.05;1.80;;;;;;;9.60;99.51;97634.75;4181849;28;20264;-84
2023/12/23 03:24:48;;;;;;;5.13;1.63;;;;;;;9.62;99.41;97637.25;4188045;28;20710;-85
2023/12/23 03:26:53;;;;;;;6.60;1.65;;;;;;;9.62;99.22;97648.53;4204151;28;20236;-84
2023/12/23 03:28:56;;;;;;;4.05;1.60;;;;;;;9.61;99.04;97635.63;4204024;28;20775;-87
2023/12/23 03:30:59;;;;;;;5.68;1.42;;;;;;;9.60;99.17;97632.16;4206065;28;20201;-87
2023/12/23 03:33:03;;;;;;;8.00;1.63;;;;;;;9.58;99.46;97644.47;4200040;28;20716;-87
2023/12/23 03:35:07;;;;;;;4.15;2.05;;;;;;;9.62;98.97;97621.66;4205176;28;20725;-87
2023/12/23 03:37:11;;;;;;;5.50;1.65;;;;;;;9.64;98.77;97641.44;4204999;28;20204;-87
2023/12/23 03:39:14;;;;;;;6.57;1.60;;;;;;;9.67;98.83;97640.38;4187086;28;20266;-87
2023/12/23 03:41:16;;;;;;;4.35;1.70;;;;;;;9.62;98.44;97639.88;4189709;28;20208;-87
2023/12/23 03:43:22;;;;;;;4.90;1.55;;;;;;;9.66;98.63;97638.72;4205322;28;20295;-88
2023/12/23 03:45:25;;;;;;;4.63;1.60;;;;;;;9.66;98.59;97647.34;4181844;28;20697;-87
2023/12/23 03:47:27;;;;;;;3.38;1.60;;;;;;;9.68;97.95;97647.22;4204984;28;20208;-87
2023/12/23 03:49:30;;;;;;;7.07;1.83;;;;;;;9.67;97.77;97633.41;4211048;28;20231;-87
2023/12/23 03:51:32;;;;;;;3.40;1.65;;;;;;;9.66;98.47;97636.13;4185929;28;20204;-87
2023/12/23 03:53:35;;;;;;;6.53;2.20;;;;;;;9.64;98.50;97645.81;4188642;28;20217;-87
2023/12/23 03:55:39;;;;;;;3.92;1.50;;;;;;;9.64;98.79;97651.84;4201242;28;20233;-87
2023/12/23 03:57:43;;;;;;;6.13;1.40;;;;;;;9.69;99.15;97633.28;4202547;28;20306;-87
2023/12/23 03:59:50;;;;;;;5.57;1.60;;;;;;;9.69;98.63;97643.69;4208779;28;20209;-86
2023/12/23 04:01:53;;;;;;;4.05;1.77;;;;;;;9.67;98.52;97636.00;4200779;28;20207;-87
2023/12/23 04:03:57;;;;;;;5.32;1.92;;;;;;;9.71;98.22;97642.66;4189503;28;20200;-87
2023/12/23 04:06:02;;;;;;;5.60;1.92;;;;;;;9.67;98.33;97640.38;4188774;28;20201;-87
2023/12/23 04:08:06;;;;;;;3.58;1.35;;;;;;;9.64;98.16;97623.19;4189260;28;20218;-88
2023/12/23 04:10:09;;;;;;;4.93;1.95;;;;;;;9.60;97.86;97633.94;4190030;28;20643;-87
2023/12/23 04:12:12;;;;;;;6.32;1.70;;;;;;;9.61;98.16;97630.41;4218023;28;20207;-87
2023/12/23 04:14:15;;;;;;;4.05;1.70;;;;;;;9.62;97.98;97635.50;4204314;28;20295;-87
2023/12/23 04:16:20;;;;;;;7.97;2.10;;;;;;;9.65;97.79;97629.22;4185763;28;20233;-87
2023/12/23 04:18:24;;;;;;;4.30;1.88;;;;;;;9.61;97.10;97630.41;4198609;28;20598;-87
2023/12/23 04:20:27;;;;;;;5.40;1.90;;;;;;;9.64;98.32;97623.19;4202006;28;20204;-87
2023/12/23 04:22:29;;;;;;;5.18;1.50;;;;;;;9.66;97.89;97630.91;4187286;28;20205;-87
2023/12/23 04:24:33;;;;;;;2.35;1.60;;;;;;;9.72;97.46;97636.50;4200161;28;20199;-87
2023/12/23 04:26:36;;;;;;;4.28;2.28;;;;;;;9.70;97.60;97627.16;4202656;28;20617;-87
2023/12/23 04:28:39;;;;;;;6.13;1.87;;;;;;;9.66;97.82;97638.72;4187719;28;20197;-87
2023/12/23 04:30:42;;;;;;;4.28;1.70;;;;;;;9.66;97.68;97623.91;4201521;28;20656;-87
2023/12/23 04:32:48;;;;;;;4.03;1.50;;;;;;;9.61;97.65;97620.00;4187348;28;20586;-87
2023/12/23 04:34:54;;;;;;;6.25;2.05;;;;;;;9.65;97.67;97632.69;4197735;28;20212;-87
2023/12/23 04:36:57;;;;;;;3.50;1.75;;;;;;;9.69;98.10;97628.09;4188693;28;20233;-87
2023/12/23 04:39:03;;;;;;;5.80;1.57;;;;;;;9.67;97.31;97627.38;4215156;28;20707;-87
2023/12/23 04:41:07;;;;;;;4.13;1.58;;;;;;;9.73;97.46;97629.53;4197542;28;21192;-87
2023/12/23 04:43:14;;;;;;;5.00;1.80;;;;;;;9.70;97.52;97633.19;4186294;28;20296;-87
2023/12/23 04:45:18;;;;;;;7.47;2.85;;;;;;;9.67;95.86;97616.97;4211012;28;20615;-88
2023/12/23 04:47:21;;;;;;;5.90;2.03;;;;;;;9.69;96.38;97628.09;4206697;28;20598;-87
2023/12/23 04:49:26;;;;;;;4.22;1.80;;;;;;;9.67;96.05;97629.97;4201175;28;20626;-87
2023/12/23 04:51:29;;;;;;;4.28;1.67;;;;;;;9.73;95.81;97640.78;4189720;28;20202;-87
2023/12/23 04:53:33;;;;;;;4.70;1.98;;;;;;;9.78;95.86;97645.66;4199536;28;20219;-87
2023/12/23 04:55:36;;;;;;;4.90;1.80;;;;;;;9.72;95.65;97636.50;4186596;28;20222;-87
2023/12/23 04:57:40;;;;;;;5.00;2.20;;;;;;;9.69;95.44;97634.09;4203288;28;20708;-87
2023/12/23 04:59:42;;;;;;;4.38;1.98;;;;;;;9.72;95.17;97623.47;4184565;28;21580;-88
2023/12/23 05:01:45;;;;;;;5.97;1.70;;;;;;;9.72;95.03;97628.69;4202881;28;20201;-87
2023/12/23 05:03:49;;;;;;;4.20;1.77;;;;;;;9.74;95.49;97636.38;4190296;28;20201;-87
2023/12/23 05:05:54;;;;;;;3.47;1.37;;;;;;;9.76;95.51;97630.13;4204740;28;20204;-87
2023/12/23 05:07:57;;;;;;;5.22;1.50;;;;;;;9.77;95.70;97625.75;4202757;28;20617;-87
2023/12/23 05:10:01;;;;;;;2.95;1.42;;;;;;;9.76;95.70;97634.50;4191435;28;20293;-88
2023/12/23 05:12:05;;;;;;;3.63;1.63;;;;;;;9.77;95.54;97641.38;4188433;28;20268;-87
2023/12/23 05:14:08;;;;;;;5.90;1.63;;;;;;;9.77;95.58;97644.78;4188705;28;20316;-87
2023/12/23 05:16:11;;;;;;;3.08;1.65;;;;;;;9.79;95.10;97634.25;4204081;28;20338;-87
2023/12/23 05:18:14;;;;;;;4.93;2.25;;;;;;;9.77;94.91;97641.38;4191975;28;20205;-87
2023/12/23 05:20:18;;;;;;;4.18;1.45;;;;;;;9.78;94.29;97630.03;4188677;28;20953;-87
2023/12/23 05:22:22;;;;;;;5.60;1.63;;;;;;;9.79;94.57;97636.88;4208659;28;20205;-88
2023/12/23 05:24:25;;;;;;;4.32;1.60;;;;;;;9.77;94.36;97631.78;4209375;28;20300;-89
2023/12/23 05:26:28;;;;;;;4.50;1.55;;;;;;;9.79;94.84;97626.44;4188603;28;20205;-87
2023/12/23 05:28:31;;;;;;;4.38;1.55;;;;;;;9.83;94.93;97630.50;4207061;28;20607;-86
2023/12/23 05:30:34;;;;;;;3.45;1.42;;;;;;;9.81;95.79;97627.19;4192704;28;20228;-88
2023/12/23 05:32:37;;;;;;;5.65;1.75;;;;;;;9.84;95.89;97636.44;4203143;28;20205;-88
2023/12/23 05:34:39;;;;;;;4.33;1.60;;;;;;;9.84;95.52;97640.81;4213343;28;20200;-88
2023/12/23 05:36:43;;;;;;;3.47;1.65;;;;;;;9.80;95.82;97634.16;4183996;28;20652;-88
2023/12/23 05:38:46;;;;;;;3.03;1.45;;;;;;;9.83;96.06;97630.50;4192580;28;20242;-87
2023/12/23 05:40:49;;;;;;;5.15;1.60;;;;;;;9.77;96.31;97625.75;4191298;28;20206;-87
2023/12/23 05:42:53;;;;;;;3.35;1.25;;;;;;;9.78;96.43;97638.66;4205937;28;20205;-87
2023/12/23 05:44:56;;;;;;;2.80;1.50;;;;;;;9.78;96.59;97638.66;4205009;28;20288;-87
2023/12/23 05:46:59;;;;;;;4.07;1.50;;;;;;;9.80;97.31;97643.75;4190997;28;20659;-87
2023/12/23 05:49:02;;;;;;;2.67;1.33;;;;;;;9.78;97.68;97643.03;4194183;28;20212;-87
2023/12/23 05:51:08;;;;;;;2.97;1.13;;;;;;;9.72;98.08;97636.50;4189609;28;20202;-87
2023/12/23 05:53:11;;;;;;;2.70;1.30;;;;;;;9.68;99.04;97644.63;4203601;28;20197;-86
2023/12/23 05:55:15;;;;;;;3.20;1.35;;;;;;;9.65;100.00;97642.25;4203987;28;20706;-87
2023/12/23 05:57:18;;;;;;;3.03;1.60;;;;;;;9.64;100.00;97643.22;4190591;28;20237;-87
2023/12/23 05:59:21;;;;;;;2.53;1.30;;;;;;;9.62;100.00;97645.06;4206132;28;20359;-87
2023/12/23 06:01:26;;;;;;;2.70;1.20;;;;;;;9.55;100.00;97639.47;4204099;28;20694;-86
2023/12/23 06:03:29;;;;;;;2.97;1.30;;;;;;;9.51;100.00;97643.22;4202770;28;20616;-86
2023/12/23 06:05:31;;;;;;;3.78;1.50;;;;;;;9.54;100.00;97640.41;4207806;28;20896;-86
2023/12/23 06:07:35;;;;;;;2.53;1.05;;;;;;;9.56;100.00;97638.56;4186394;28;20205;-86
2023/12/23 06:09:39;;;;;;;2.38;1.10;;;;;;;9.50;100.00;97632.94;4201212;28;20286;-85
2023/12/23 06:11:42;;;;;;;5.05;1.48;;;;;;;9.48;100.00;97632.22;4200976;28;20200;-88
2023/12/23 06:13:45;;;;;;;2.30;1.20;;;;;;;9.50;100.00;97641.59;4206203;28;20220;-87
2023/12/23 06:15:48;;;;;;;2.05;1.02;;;;;;;9.45;100.00;97642.84;4190987;28;20607;-87
2023/12/23 06:17:52;;;;;;;6.88;1.13;;;;;;;9.41;100.00;97637.03;4188130;28;20869;-87
2023/12/23 06:19:56;;;;;;;2.50;0.98;;;;;;;9.39;100.00;97630.25;4200321;28;20206;-88
2023/12/23 06:21:59;;;;;;;2.42;1.05;;;;;;;9.38;100.00;97626.00;4191468;28;20201;-87
2023/12/23 06:24:03;;;;;;;3.67;0.85;;;;;;;9.40;100.00;97626.72;4198806;28;20449;-89
2023/12/23 06:26:05;;;;;;;2.03;1.00;;;;;;;9.37;100.00;97639.97;4203347;28;20201;-87
2023/12/23 06:28:10;;;;;;;1.60;0.88;;;;;;;9.38;100.00;97636.41;4181952;28;20217;-86
2023/12/23 06:30:14;;;;;;;2.53;0.70;;;;;;;9.40;100.00;97627.56;4189692;28;20215;-87
2023/12/23 06:32:17;;;;;;;3.08;1.10;;;;;;;9.40;100.00;97624.13;4201479;28;20204;-86
2023/12/23 06:34:20;;;;;;;1.67;0.88;;;;;;;9.43;100.00;97621.31;4183144;28;20304;-87
2023/12/23 06:36:22;;;;;;;4.72;1.10;;;;;;;9.39;100.00;97631.09;4199102;28;20224;-86
2023/12/23 06:38:26;;;;;;;2.00;0.98;;;;;;;9.40;100.00;97622.34;4214746;28;20204;-87
2023/12/23 06:40:28;;;;;;;1.30;0.70;;;;;;;9.41;100.00;97625.78;4203901;28;20209;-87
2023/12/23 06:42:32;;;;;;;3.15;1.08;;;;;;;9.44;100.00;97628.16;4187123;28;20248;-86
2023/12/23 06:44:36;;;;;;;1.63;0.93;;;;;;;9.40;100.00;97626.72;4186855;28;20212;-87
2023/12/23 06:46:39;;;;;;;1.40;0.70;;;;;;;9.44;100.00;97633.38;4191798;28;20304;-86
2023/12/23 06:48:43;;;;;;;1.70;0.80;;;;;;;9.45;100.00;97624.63;4199935;28;20328;-86
2023/12/23 06:50:45;;;;;;;3.30;1.60;;;;;;;9.46;100.00;97610.69;4189449;28;20634;-86
2023/12/23 06:52:48;;;;;;;1.40;0.80;;;;;;;9.46;100.00;97621.09;4204070;28;20684;-86
2023/12/23 06:54:52;;;;;;;1.98;0.70;;;;;;;9.47;100.00;97607.13;4186721;28;21138;-87
2023/12/23 06:56:55;;;;;;;1.65;0.70;;;;;;;9.42;100.00;97584.03;4205585;28;20312;-86
2023/12/23 06:58:59;;;;;;;1.50;0.70;;;;;;;9.41;100.00;97608.41;4188487;28;20210;-87
2023/12/23 07:01:04;;;;;;;4.30;0.80;;;;;;;9.45;100.00;97616.81;4185963;28;20786;-87
2023/12/23 07:03:08;;;;;;;3.45;1.02;;;;;;;9.50;100.00;97612.09;4199586;28;20189;-87
2023/12/23 07:05:11;;;;;;;1.92;0.70;;;;;;;9.45;100.00;97612.44;4190615;28;20200;-87
2023/12/23 07:07:15;;;;;;;3.05;0.85;;;;;;;9.45;100.00;97609.00;4185427;28;20734;-87
2023/12/23 07:09:18;;;;;;;1.98;0.75;;;;;;;9.45;100.00;97601.22;4203825;28;20200;-87
2023/12/23 07:11:20;;;;;;;2.60;0.70;;;;;;;9.42;100.00;97614.44;4202766;28;20307;-88
2023/12/23 07:13:23;;;;;;;2.80;0.90;;;;;;;9.45;100.00;97619.41;4202043;28;20227;-87
2023/12/23 07:15:26;;;;;;;2.22;1.17;;;;;;;9.48;100.00;97614.00;4190615;28;20201;-87
2023/12/23 07:17:31;;;;;;;2.50;0.95;;;;;;;9.51;100.00;97624.19;4189504;28;20738;-87
2023/12/23 07:19:43;;;;;;;2.30;1.00;;;;;;;9.51;100.00;97608.56;4215429;28;20295;-87
2023/12/23 07:21:48;;;;;;;1.75;0.98;;;;;;;9.50;100.00;97607.75;4184219;28;20281;-86
2023/12/23 07:23:51;;;;;;;2.37;0.77;;;;;;;9.49;100.00;97602.66;4188028;28;20674;-87
2023/12/23 07:25:54;;;;;;;2.92;0.80;;;;;;;9.50;99.58;97619.91;4210691;28;20637;-87
2023/12/23 07:27:58;;;;;;;2.42;0.90;;;;;;;9.48;99.11;97611.41;4206786;28;20211;-87
2023/12/23 07:30:01;;;;;;;1.75;0.80;;;;;;;9.52;99.81;97615.44;4188632;28;20209;-87
2023/12/23 07:32:05;;;;;;;1.70;0.80;;;;;;;9.52;99.27;97611.06;4201472;28;20283;-86
2023/12/23 07:34:10;;;;;;;2.10;0.90;;;;;;;9.55;98.87;97623.88;4214259;28;20740;-87
2023/12/23 07:36:12;;;;;;;2.72;0.90;;;;;;;9.57;98.72;97614.16;4204324;28;20215;-87
2023/12/23 07:38:15;;;;;;;1.20;0.60;;;;;;;9.61;98.17;97614.78;4198359;28;20229;-87
2023/12/23 07:40:19;;;;;;;1.70;0.75;;;;;;;9.58;98.05;97608.03;4205755;28;20209;-86
2023/12/23 07:42:21;;;;;;;1.52;0.80;;;;;;;9.63;97.86;97621.53;4191358;28;20208;-87
2023/12/23 07:44:25;;;;;;;3.03;0.70;;;;;;;9.68;98.12;97616.00;4205811;28;20700;-87
2023/12/23 07:46:28;;;;;;;2.03;0.77;;;;;;;9.66;97.38;97607.47;4203026;28;20737;-86
2023/12/23 07:48:31;;;;;;;1.50;0.70;;;;;;;9.66;97.81;97615.28;4189267;28;20202;-86
2023/12/23 07:50:36;;;;;;;2.23;0.60;;;;;;;9.66;97.16;97623.09;4188196;28;20217;-90
2023/12/23 07:52:39;;;;;;;1.23;0.52;;;;;;;9.65;97.73;97622.28;4194045;28;20631;-90
2023/12/23 07:54:41;;;;;;;1.50;0.70;;;;;;;9.66;97.82;97618.72;4205877;28;20234;-90
2023/12/23 07:56:44;;;;;;;2.15;0.60;;;;;;;9.67;97.93;97620.38;4189945;28;20681;-89
2023/12/23 07:58:48;;;;;;;1.20;0.57;;;;;;;9.65;97.69;97611.00;4203034;28;20590;-89
2023/12/23 08:00:51;;;;;;;3.65;0.55;;;;;;;9.64;97.28;97614.56;4185659;28;20728;-89
2023/12/23 08:02:54;;;;;;;1.70;0.50;;;;;;;9.67;98.03;97624.75;4202341;28;20208;-89
2023/12/23 08:04:57;;;;;;;1.30;0.50;;;;;;;9.65;97.73;97630.09;4190302;28;20669;-89
2023/12/23 08:07:02;;;;;;;1.10;0.40;;;;;;;9.58;97.51;97617.63;4191409;28;20193;-90
2023/12/23 08:09:04;;;;;;;1.30;0.60;;;;;;;9.63;97.15;97636.34;4185562;28;20289;-90
2023/12/23 08:11:07;;;;;;;1.75;0.80;;;;;;;9.64;96.74;97614.56;4215737;28;20196;-90
2023/12/23 08:13:11;;;;;;;1.10;0.47;;;;;;;9.62;96.63;97632.91;4183547;28;20232;-90
2023/12/23 08:15:14;;;;;;;1.40;0.57;;;;;;;9.67;96.52;97622.16;4188401;28;20779;-89
2023/12/23 08:17:17;;;;;;;1.45;0.55;;;;;;;9.65;96.14;97629.22;4203802;28;20964;-90
2023/12/23 08:19:20;;;;;;;1.30;0.50;;;;;;;9.69;95.75;97634.09;4201168;28;20201;-88
2023/12/23 08:21:24;;;;;;;2.10;0.50;;;;;;;9.71;95.09;97615.78;4198085;28;20349;-89
2023/12/23 08:23:29;;;;;;;1.92;0.75;;;;;;;9.64;95.66;97609.38;4209671;28;20250;-90
2023/12/23 08:25:32;;;;;;;1.25;0.57;;;;;;;9.63;96.42;97625.91;4204412;28;20201;-88
2023/12/23 08:27:35;;;;;;;1.35;0.52;;;;;;;9.60;95.59;97618.31;4195567;28;20678;-90
2023/12/23 08:29:41;;;;;;;4.82;0.70;;;;;;;9.59;96.18;97627.91;4206990;28;20197;-91
2023/12/23 08:31:45;;;;;;;1.55;0.40;;;;;;;9.61;96.02;97630.41;4211369;28;20232;-90
2023/12/23 08:33:48;;;;;;;1.33;0.50;;;;;;;9.61;96.39;97635.63;4191678;28;20757;-89
2023/12/23 08:35:52;;;;;;;1.30;0.52;;;;;;;9.62;96.40;97634.66;4204420;28;20230;-90
2023/12/23 08:37:54;;;;;;;2.40;1.10;;;;;;;9.65;96.52;97652.66;4202869;28;20311;-90
2023/12/23 08:39:59;;;;;;;2.15;0.50;;;;;;;9.66;96.17;97646.53;4206490;28;20792;-89
2023/12/23 08:42:05;;;;;;;1.17;0.40;;;;;;;9.65;95.85;97642.25;4190160;28;20214;-89
2023/12/23 08:44:08;;;;;;;1.23;0.47;;;;;;;9.65;95.85;97629.22;4200688;28;20645;-90
2023/12/23 08:46:11;;;;;;;1.20;0.50;;;;;;;9.63;96.06;97641.53;4199387;28;20203;-87
2023/12/23 08:48:14;;;;;;;1.17;0.50;;;;;;;9.66;95.40;97646.53;4194905;28;20216;-89
2023/12/23 08:50:20;;;;;;;1.23;0.45;;;;;;;9.70;95.13;97627.16;4205077;28;20753;-90
2023/12/23 08:52:23;;;;;;;1.13;0.47;;;;;;;9.76;95.00;97634.50;4205424;28;20200;-89
2023/12/23 08:54:26;;;;;;;1.38;0.50;;;;;;;9.76;94.52;97630.13;4187080;28;20227;-87
2023/12/23 08:56:31;;;;;;;1.00;0.40;;;;;;;9.78;94.87;97632.63;4204507;28;20299;-90
2023/12/23 08:58:34;;;;;;;1.13;0.40;;;;;;;9.84;93.95;97628.63;4187344;28;20229;-90
2023/12/23 09:00:38;;;;;;;1.00;0.40;;;;;;;9.86;93.30;97636.31;4190158;28;20201;-90
2023/12/23 09:02:40;;;;;;;1.30;0.50;;;;;;;9.84;93.36;97630.41;4209823;28;20205;-92
2023/12/23 09:04:43;;;;;;;1.20;0.40;;;;;;;9.84;92.92;97616.56;4196020;28;20209;-91
2023/12/23 09:06:47;;;;;;;1.40;0.50;;;;;;;9.85;92.13;97619.88;4209645;28;20236;-91
2023/12/23 09:08:51;;;;;;;2.75;0.57;;;;;;;9.85;92.33;97625.06;4211354;28;20589;-92
2023/12/23 09:10:53;;;;;;;1.63;0.40;;;;;;;9.87;92.30;97614.56;4210439;28;20212;-92
2023/12/23 09:12:58;;;;;;;1.58;0.40;;;;;;;9.90;92.66;97617.75;4192275;28;20291;-91
2023/12/23 09:15:03;;;;;;;1.10;0.40;;;;;;;9.90;91.86;97628.16;4213221;28;20200;-90
2023/12/23 09:17:07;;;;;;;2.83;0.57;;;;;;;9.92;91.58;97636.72;4199239;28;20602;-92
2023/12/23 09:19:10;;;;;;;1.42;0.57;;;;;;;9.91;92.04;97624.63;4211362;28;20267;-90
2023/12/23 09:21:14;;;;;;;1.00;0.40;;;;;;;9.93;91.77;97627.97;4211712;28;20297;-91
2023/12/23 09:23:17;;;;;;;1.10;0.50;;;;;;;9.93;91.16;97640.16;4208934;28;20201;-89
2023/12/23 09:25:20;;;;;;;1.20;0.50;;;;;;;9.95;91.93;97646.94;4204540;28;20291;-91
2023/12/23 09:27:23;;;;;;;1.15;0.40;;;;;;;9.95;91.47;97652.16;4204773;28;20204;-90
2023/12/23 09:29:28;;;;;;;1.27;0.50;;;;;;;9.96;91.53;97630.34;4193267;28;20202;-89
2023/12/23 09:31:32;;;;;;;1.20;0.40;;;;;;;9.96;91.30;97663.41;4190999;28;20209;-88
2023/12/23 09:33:35;;;;;;;1.50;0.50;;;;;;;9.93;91.65;97667.03;4202908;28;20300;-89
2023/12/23 09:35:39;;;;;;;1.30;0.70;;;;;;;9.93;92.35;97658.38;4211158;28;20685;-88
2023/12/23 09:37:42;;;;;;;1.35;0.40;;;;;;;9.93;92.03;97654.03;4192537;28;20628;-90
2023/12/23 09:39:44;;;;;;;2.03;0.60;;;;;;;9.94;91.45;97666.13;4191223;28;20288;-90
2023/12/23 09:41:48;;;;;;;1.60;0.70;;;;;;;9.95;90.51;97654.75;4193409;28;20271;-90
2023/12/23 09:43:52;;;;;;;1.70;0.90;;;;;;;9.88;91.12;97665.69;4209590;28;20629;-91